Terminal Aerodrome Forecast
Issued by NWS

Home | Current Version | Previous Version | Graphics & Text | Print | Product List | Glossary On
Versions: 1 2 3 4 5 6 7 8 9 10 11 12 13 14 15 16 17 18
384
FTUS43 KMPX 251736
TAFRNH
TAF
KRNH 251736Z 2518/2618 07010G15KT P6SM OVC017
      TEMPO 2521/2524 OVC020
     FM260100 06008KT P6SM OVC013
     FM260600 05007KT 4SM -RA BR SCT003 OVC005=

USA.gov is the U.S. government's official web portal to all federal, state and local government web resources and services.